createdAt,value
2019-02-21T00:01:32.267Z,95661.67
2019-02-21T00:04:00.952Z,95662.50
2019-02-21T00:06:29.598Z,95666.63
2019-02-21T00:08:58.173Z,95664.61
2019-02-21T00:11:26.815Z,95672.42
2019-02-21T00:13:55.417Z,95675.86
2019-02-21T00:16:24.005Z,95669.43
2019-02-21T00:21:40.258Z,95673.58
2019-02-21T00:24:08.878Z,95679.23
2019-02-21T00:26:37.555Z,95672.31
2019-02-21T00:29:06.166Z,95674.92
2019-02-21T00:31:34.794Z,95668.25
2019-02-21T00:34:03.645Z,95672.91
2019-02-21T00:36:32.300Z,95674.59
2019-02-21T00:39:01.150Z,95674.17
2019-02-21T00:41:29.884Z,95678.07
2019-02-21T00:46:46.367Z,95683.09
2019-02-21T00:49:14.977Z,95677.28
2019-02-21T00:51:43.562Z,95682.55
2019-02-21T00:54:12.198Z,95676.67
2019-02-21T00:56:41.032Z,95687.77
2019-02-21T00:59:09.680Z,95690.80
2019-02-21T01:01:38.280Z,95685.39
2019-02-21T01:04:27.728Z,95678.52
2019-02-21T01:06:56.393Z,95686.75
2019-02-21T01:09:25.227Z,95686.00
2019-02-21T01:11:54.043Z,95696.30
2019-02-21T01:14:22.903Z,95698.96
2019-02-21T01:16:51.475Z,95688.84
2019-02-21T01:19:20.114Z,95696.97
2019-02-21T01:21:48.745Z,95692.45
2019-02-21T01:24:17.334Z,95699.14
2019-02-21T01:26:46.677Z,95701.70
2019-02-21T01:29:15.413Z,95697.11
2019-02-21T01:32:03.277Z,95689.17
2019-02-21T01:34:31.927Z,95690.69
2019-02-21T01:37:00.579Z,95688.82
2019-02-21T01:39:29.326Z,95686.95
2019-02-21T01:41:57.957Z,95681.20
2019-02-21T01:44:26.555Z,95684.66
2019-02-21T01:46:55.124Z,95680.17
2019-02-21T01:49:23.837Z,95679.86
2019-02-21T01:51:52.453Z,95684.60
2019-02-21T01:54:21.136Z,95686.91
2019-02-21T01:56:49.709Z,95686.03
2019-02-21T01:59:18.273Z,95681.14
2019-02-21T02:05:01.624Z,95688.62
2019-02-21T02:10:18.066Z,95691.20
2019-02-21T02:12:46.982Z,95690.17
2019-02-21T02:15:15.926Z,95700.58
2019-02-21T02:17:44.546Z,95698.09
2019-02-21T02:20:13.145Z,95698.97
2019-02-21T02:22:41.768Z,95694.80
2019-02-21T02:25:10.401Z,95702.58
2019-02-21T02:27:38.975Z,95704.65
2019-02-21T02:30:08.103Z,95699.48
2019-02-21T02:32:36.746Z,95703.22
2019-02-21T02:35:05.732Z,95699.98
2019-02-21T02:37:34.563Z,95691.07
2019-02-21T02:40:03.128Z,95691.91
2019-02-21T02:42:31.770Z,95696.43
2019-02-21T02:45:00.651Z,95704.81
2019-02-21T02:47:29.548Z,95703.68
2019-02-21T02:49:58.153Z,95695.30
2019-02-21T02:52:26.811Z,95703.53
2019-02-21T02:54:55.404Z,95701.27
2019-02-21T02:57:24.301Z,95693.48
2019-02-21T02:59:52.888Z,95699.06
2019-02-21T03:02:21.601Z,95711.28
2019-02-21T03:04:50.262Z,95709.65
2019-02-21T03:07:18.866Z,95713.40
2019-02-21T03:10:06.729Z,95713.89
2019-02-21T03:12:54.601Z,95714.95
2019-02-21T03:15:23.301Z,95709.37
2019-02-21T03:17:52.399Z,95707.41
2019-02-21T03:20:20.973Z,95706.33
2019-02-21T03:22:49.797Z,95714.25
2019-02-21T03:25:18.382Z,95712.86
2019-02-21T03:30:34.574Z,95716.70
2019-02-21T03:33:03.188Z,95721.06
2019-02-21T03:38:25.230Z,95730.73
2019-02-21T03:43:28.815Z,95731.22
2019-02-21T03:45:57.420Z,95727.49
2019-02-21T03:48:26.297Z,95726.44
2019-02-21T03:50:54.945Z,95720.81
2019-02-21T03:53:23.532Z,95721.78
2019-02-21T03:55:52.707Z,95729.88
2019-02-21T03:58:21.438Z,95729.95
2019-02-21T04:00:50.342Z,95733.09
2019-02-21T04:03:18.974Z,95730.53
2019-02-21T04:05:47.849Z,95733.03
2019-02-21T04:08:16.490Z,95736.10
2019-02-21T04:10:45.305Z,95739.53
2019-02-21T04:13:15.329Z,95726.85
2019-02-21T04:15:44.253Z,95738.77
2019-02-21T04:18:12.864Z,95732.87
2019-02-21T04:20:41.705Z,95732.52
2019-02-21T04:23:10.300Z,95732.13
2019-02-21T04:25:39.015Z,95734.16
2019-02-21T04:28:07.595Z,95737.41
2019-02-21T04:30:36.156Z,95730.50
2019-02-21T04:33:04.740Z,95733.91
2019-02-21T04:35:33.560Z,95728.38
2019-02-21T04:38:02.239Z,95722.59
2019-02-21T04:40:30.815Z,95725.97
2019-02-21T04:42:59.453Z,95721.68
2019-02-21T04:45:28.317Z,95726.91
2019-02-21T04:47:56.935Z,95720.28
2019-02-21T04:50:25.567Z,95725.98
2019-02-21T04:52:54.144Z,95717.86
2019-02-21T04:55:22.748Z,95727.32
2019-02-21T04:57:51.365Z,95715.46
2019-02-21T05:00:19.925Z,95718.33
2019-02-21T05:02:48.723Z,95715.27
2019-02-21T05:05:17.303Z,95717.64
2019-02-21T05:07:45.965Z,95717.47
2019-02-21T05:10:14.574Z,95710.50
2019-02-21T05:12:43.154Z,95716.75
2019-02-21T05:15:13.923Z,95722.48
2019-02-21T05:17:42.041Z,95720.05
2019-02-21T05:20:10.608Z,95717.16
2019-02-21T05:22:39.210Z,95708.34
2019-02-21T05:25:07.800Z,95722.25
2019-02-21T05:27:39.694Z,95725.09
2019-02-21T05:30:10.657Z,95724.81
2019-02-21T05:33:01.553Z,95727.45
2019-02-21T05:35:48.068Z,95724.13
2019-02-21T05:38:50.950Z,95727.59
2019-02-21T05:41:44.540Z,95723.61
2019-02-21T05:44:36.209Z,95725.31
2019-02-21T05:47:16.048Z,95714.67
2019-02-21T05:49:49.595Z,95716.66
2019-02-21T05:52:32.667Z,95714.14
2019-02-21T05:55:32.521Z,95713.58
2019-02-21T05:58:18.153Z,95716.16
2019-02-21T06:00:52.347Z,95718.22
2019-02-21T06:03:42.142Z,95715.27
2019-02-21T06:06:30.105Z,95717.03
2019-02-21T06:09:08.207Z,95709.86
2019-02-21T06:11:44.761Z,95717.98
2019-02-21T06:14:32.374Z,95723.57
2019-02-21T06:17:16.737Z,95727.55
2019-02-21T06:20:03.119Z,95718.09
2019-02-21T06:22:43.988Z,95726.26
2019-02-21T06:25:33.352Z,95732.03
2019-02-21T06:28:19.741Z,95735.19
2019-02-21T06:30:54.703Z,95731.97
2019-02-21T06:33:23.519Z,95740.89
2019-02-21T06:35:52.083Z,95739.66
2019-02-21T06:38:21.159Z,95738.81
2019-02-21T06:40:50.539Z,95746.27
2019-02-21T06:43:19.091Z,95746.16
2019-02-21T06:45:47.670Z,95744.44
2019-02-21T06:48:16.298Z,95746.47
2019-02-21T06:50:47.414Z,95746.84
2019-02-21T06:53:15.566Z,95751.53
2019-02-21T06:55:44.166Z,95753.78
2019-02-21T06:58:12.752Z,95754.43
2019-02-21T07:00:41.339Z,95753.41
2019-02-21T07:03:15.919Z,95750.04
2019-02-21T07:05:40.208Z,95765.34
2019-02-21T07:08:09.064Z,95762.77
2019-02-21T07:10:37.635Z,95768.34
2019-02-21T07:13:06.205Z,95762.39
2019-02-21T07:15:35.098Z,95768.19
2019-02-21T07:18:03.725Z,95765.70
2019-02-21T07:20:32.382Z,95770.31
2019-02-21T07:23:00.957Z,95766.92
2019-02-21T07:25:36.468Z,95769.78
2019-02-21T07:28:11.831Z,95778.35
2019-02-21T07:30:35.777Z,95781.89
2019-02-21T07:33:04.382Z,95776.13
2019-02-21T07:35:33.327Z,95780.67
2019-02-21T07:38:01.912Z,95775.88
2019-02-21T07:40:30.755Z,95775.68
2019-02-21T07:42:59.344Z,95786.59
2019-02-21T07:45:27.927Z,95792.17
2019-02-21T07:47:56.795Z,95790.14
2019-02-21T07:50:25.406Z,95787.38
2019-02-21T07:53:02.048Z,95790.57
2019-02-21T07:55:24.335Z,95788.17
2019-02-21T07:57:52.947Z,95789.40
2019-02-21T08:00:21.770Z,95795.76
2019-02-21T08:02:50.365Z,95790.97
2019-02-21T08:05:18.991Z,95799.98
2019-02-21T08:07:49.812Z,95796.45
2019-02-21T08:10:20.994Z,95796.61
2019-02-21T08:12:48.651Z,95809.19
2019-02-21T08:15:17.258Z,95809.48
2019-02-21T08:17:45.855Z,95809.48
2019-02-21T08:20:14.542Z,95804.95
2019-02-21T08:22:43.181Z,95808.17
2019-02-21T08:25:11.986Z,95809.77
2019-02-21T08:27:42.491Z,95815.96
2019-02-21T08:30:13.083Z,95813.80
2019-02-21T08:33:00.560Z,95813.47
2019-02-21T08:35:29.526Z,95822.52
2019-02-21T08:37:58.175Z,95818.31
2019-02-21T08:40:26.781Z,95820.79
2019-02-21T08:42:55.408Z,95824.94
2019-02-21T08:45:24.005Z,95823.95
2019-02-21T08:47:53.598Z,95830.72
2019-02-21T08:50:22.631Z,95821.83
2019-02-21T08:52:51.376Z,95831.06
2019-02-21T08:55:20.040Z,95838.61
2019-02-21T08:57:48.648Z,95838.44
2019-02-21T09:00:17.463Z,95842.78
2019-02-21T09:02:46.114Z,95845.53
2019-02-21T09:05:15.321Z,95835.45
2019-02-21T09:07:46.191Z,95841.89
2019-02-21T09:10:14.565Z,95842.00
2019-02-21T09:12:47.836Z,95838.53
2019-02-21T09:15:14.999Z,95843.14
2019-02-21T09:17:43.613Z,95832.09
2019-02-21T09:20:12.317Z,95835.25
2019-02-21T09:22:40.990Z,95835.55
2019-02-21T09:25:11.411Z,95835.12
2019-02-21T09:27:40.009Z,95830.45
2019-02-21T09:30:12.041Z,95832.58
2019-02-21T09:32:42.045Z,95831.23
2019-02-21T09:35:10.827Z,95840.90
2019-02-21T09:37:39.573Z,95838.26
2019-02-21T09:40:10.808Z,95839.83
2019-02-21T09:42:39.598Z,95845.59
2019-02-21T09:45:11.129Z,95847.43
2019-02-21T09:47:39.748Z,95844.30
2019-02-21T09:50:08.752Z,95850.34
2019-02-21T09:52:37.630Z,95850.95
2019-02-21T09:55:08.243Z,95860.39
2019-02-21T09:57:36.837Z,95853.92
2019-02-21T10:00:07.292Z,95860.12
2019-02-21T10:02:36.147Z,95859.57
2019-02-21T10:05:05.670Z,95869.09
2019-02-21T10:07:37.003Z,95865.36
2019-02-21T10:10:08.097Z,95867.03
2019-02-21T10:12:36.017Z,95868.17
2019-02-21T10:15:05.231Z,95867.91
2019-02-21T10:17:33.811Z,95872.72
2019-02-21T10:20:04.213Z,95880.88
2019-02-21T10:22:32.938Z,95886.30
2019-02-21T10:25:01.564Z,95882.69
2019-02-21T10:27:30.173Z,95891.84
2019-02-21T10:29:58.752Z,95895.23
2019-02-21T10:32:27.360Z,95891.86
2019-02-21T10:34:55.989Z,95901.30
2019-02-21T10:37:24.627Z,95899.55
2019-02-21T10:39:53.206Z,95896.33
2019-02-21T10:42:21.833Z,95888.16
2019-02-21T10:44:50.429Z,95889.14
2019-02-21T10:47:20.214Z,95878.25
2019-02-21T10:49:48.824Z,95881.23
2019-02-21T10:52:17.542Z,95875.05
2019-02-21T10:54:46.112Z,95872.92
2019-02-21T10:57:15.065Z,95869.45
2019-02-21T10:59:46.985Z,95866.82
2019-02-21T11:02:14.283Z,95865.32
2019-02-21T11:04:54.081Z,95863.28
2019-02-21T11:07:13.448Z,95863.00
2019-02-21T11:09:42.110Z,95855.00
2019-02-21T11:12:10.754Z,95863.18
2019-02-21T11:14:47.169Z,95846.05
2019-02-21T11:17:09.969Z,95848.85
2019-02-21T11:19:38.624Z,95837.31
2019-02-21T11:22:07.250Z,95837.70
2019-02-21T11:24:36.007Z,95835.12
2019-02-21T11:27:04.774Z,95835.50
2019-02-21T11:29:33.379Z,95827.66
2019-02-21T11:32:02.332Z,95824.97
2019-02-21T11:34:31.471Z,95821.72
2019-02-21T11:37:00.072Z,95826.05
2019-02-21T11:39:28.862Z,95822.03
2019-02-21T11:41:57.452Z,95831.64
2019-02-21T11:44:26.074Z,95822.48
2019-02-21T11:46:54.963Z,95831.09
2019-02-21T11:49:23.663Z,95826.04
2019-02-21T11:51:52.277Z,95825.12
2019-02-21T11:54:26.838Z,95827.28
2019-02-21T11:56:51.456Z,95815.75
2019-02-21T11:59:20.126Z,95810.05
2019-02-21T12:01:48.884Z,95813.89
2019-02-21T12:04:17.560Z,95809.60
2019-02-21T12:06:47.749Z,95814.55
2019-02-21T12:09:16.389Z,95820.12
2019-02-21T12:11:46.396Z,95820.92
2019-02-21T12:14:15.152Z,95831.11
2019-02-21T12:16:43.983Z,95829.66
2019-02-21T12:19:12.650Z,95827.31
2019-02-21T12:21:41.449Z,95829.66
2019-02-21T12:24:10.378Z,95830.97
2019-02-21T12:26:39.173Z,95826.79
2019-02-21T12:29:07.905Z,95835.14
2019-02-21T12:31:36.677Z,95825.17
2019-02-21T12:34:06.977Z,95817.86
2019-02-21T12:36:36.280Z,95816.80
2019-02-21T12:39:06.287Z,95813.73
2019-02-21T12:41:37.720Z,95822.80
2019-02-21T12:44:06.327Z,95817.33
2019-02-21T12:46:35.382Z,95821.30
2019-02-21T12:49:04.050Z,95820.94
2019-02-21T12:51:32.749Z,95823.39
2019-02-21T12:54:01.691Z,95828.88
2019-02-21T12:56:30.352Z,95815.39
2019-02-21T12:58:58.983Z,95824.69
2019-02-21T13:01:27.610Z,95822.88
2019-02-21T13:03:56.324Z,95823.89
2019-02-21T13:06:25.018Z,95824.66
2019-02-21T13:08:53.651Z,95822.88
2019-02-21T13:11:22.272Z,95835.80
2019-02-21T13:13:51.188Z,95828.36
2019-02-21T13:16:19.901Z,95826.64
2019-02-21T13:18:48.763Z,95831.75
2019-02-21T13:21:17.432Z,95827.37
2019-02-21T13:23:46.028Z,95834.97
2019-02-21T13:26:14.741Z,95825.89
2019-02-21T13:28:43.428Z,95835.03
2019-02-21T13:31:12.585Z,95831.13
2019-02-21T13:33:41.179Z,95831.63
2019-02-21T13:36:09.891Z,95832.89
2019-02-21T13:38:38.494Z,95827.66
2019-02-21T13:41:07.265Z,95832.98
2019-02-21T13:43:35.849Z,95835.08
2019-02-21T13:46:04.790Z,95837.65
2019-02-21T13:48:33.482Z,95837.09
2019-02-21T13:51:02.158Z,95840.79
2019-02-21T13:53:31.028Z,95839.05
2019-02-21T13:55:59.644Z,95836.14
2019-02-21T13:58:28.310Z,95843.12
2019-02-21T14:00:57.155Z,95841.36
2019-02-21T14:03:25.851Z,95837.59
2019-02-21T14:06:03.289Z,95839.41
2019-02-21T14:08:24.995Z,95840.53
2019-02-21T14:10:53.641Z,95835.52
2019-02-21T14:13:22.302Z,95832.25
2019-02-21T14:15:51.281Z,95835.64
2019-02-21T14:18:19.996Z,95833.53
2019-02-21T14:20:48.662Z,95844.30
2019-02-21T14:23:17.341Z,95843.33
2019-02-21T14:25:46.197Z,95847.59
2019-02-21T14:28:14.848Z,95851.52
2019-02-21T14:30:43.625Z,95844.99
2019-02-21T14:33:12.255Z,95846.70
2019-02-21T14:35:41.375Z,95849.02
2019-02-21T14:38:10.248Z,95848.48
2019-02-21T14:40:39.197Z,95848.98
2019-02-21T14:43:08.086Z,95850.61
2019-02-21T14:45:36.704Z,95847.67
2019-02-21T14:48:05.417Z,95848.58
2019-02-21T14:50:36.079Z,95841.49
2019-02-21T14:53:04.546Z,95838.89
2019-02-21T14:55:33.219Z,95844.52
2019-02-21T14:58:03.979Z,95847.75
2019-02-21T15:00:32.938Z,95845.45
2019-02-21T15:03:01.526Z,95848.94
2019-02-21T15:05:30.577Z,95854.14
2019-02-21T15:07:59.248Z,95861.13
2019-02-21T15:10:28.154Z,95851.27
2019-02-21T15:12:56.748Z,95855.83
2019-02-21T15:15:25.511Z,95850.27
2019-02-21T15:17:54.224Z,95842.78
2019-02-21T15:20:23.331Z,95849.29
2019-02-21T15:22:53.896Z,95853.17
2019-02-21T15:25:22.660Z,95856.25
2019-02-21T15:27:52.337Z,95856.43
2019-02-21T15:30:21.038Z,95858.76
2019-02-21T15:32:49.819Z,95849.95
2019-02-21T15:35:19.661Z,95861.94
2019-02-21T15:37:48.486Z,95857.80
2019-02-21T15:40:17.441Z,95868.33
2019-02-21T15:42:46.218Z,95869.16
2019-02-21T15:45:23.111Z,95862.95
2019-02-21T15:47:47.349Z,95862.59
2019-02-21T15:50:15.947Z,95863.05
2019-02-21T15:52:44.855Z,95854.39
2019-02-21T15:55:14.339Z,95867.91
2019-02-21T15:57:43.205Z,95867.39
2019-02-21T16:00:13.992Z,95876.99
2019-02-21T16:02:42.636Z,95885.94
2019-02-21T16:05:13.160Z,95894.98
2019-02-21T16:07:41.989Z,95888.27
2019-02-21T16:10:12.732Z,95880.69
2019-02-21T16:12:42.057Z,95876.13
2019-02-21T16:15:11.642Z,95878.45
2019-02-21T16:17:40.531Z,95881.53
2019-02-21T16:20:10.883Z,95884.54
2019-02-21T16:22:39.833Z,95888.59
2019-02-21T16:25:10.191Z,95894.92
2019-02-21T16:27:39.188Z,95895.99
2019-02-21T16:30:08.624Z,95894.41
2019-02-21T16:32:37.530Z,95899.22
2019-02-21T16:35:06.741Z,95898.86
2019-02-21T16:37:38.046Z,95899.11
2019-02-21T16:40:08.485Z,95896.78
2019-02-21T16:42:37.432Z,95899.34
2019-02-21T16:45:07.081Z,95903.41
2019-02-21T16:47:35.810Z,95897.56
2019-02-21T16:50:04.582Z,95892.76
2019-02-21T16:52:33.280Z,95892.80
2019-02-21T16:55:01.967Z,95894.74
2019-02-21T16:57:36.588Z,95895.54
2019-02-21T17:00:05.971Z,95894.92
2019-02-21T17:02:34.648Z,95893.74
2019-02-21T17:05:03.346Z,95901.93
2019-02-21T17:07:32.027Z,95884.50
2019-02-21T17:10:00.865Z,95891.76
2019-02-21T17:12:29.750Z,95895.55
2019-02-21T17:14:58.366Z,95891.36
2019-02-21T17:17:27.362Z,95891.36
2019-02-21T17:19:55.937Z,95898.58
2019-02-21T17:22:24.624Z,95898.58
2019-02-21T17:24:53.318Z,95891.42
2019-02-21T17:27:21.860Z,95891.31
2019-02-21T17:29:50.505Z,95895.41
2019-02-21T17:32:19.071Z,95902.34
2019-02-21T17:34:48.405Z,95902.34
2019-02-21T17:37:24.635Z,95899.48
2019-02-21T17:39:47.918Z,95913.42
2019-02-21T17:42:16.481Z,95913.42
2019-02-21T17:44:45.558Z,95923.25
2019-02-21T17:47:14.131Z,95923.36
2019-02-21T17:49:42.829Z,95923.36
2019-02-21T17:52:11.386Z,95929.38
2019-02-21T17:54:40.225Z,95932.64
2019-02-21T17:57:08.808Z,95932.64
2019-02-21T17:59:37.853Z,95945.42
2019-02-21T18:02:06.626Z,95945.42
2019-02-21T18:04:35.458Z,95948.11
2019-02-21T18:07:04.048Z,95950.91
2019-02-21T18:09:32.677Z,95945.19
2019-02-21T18:12:01.261Z,95953.64
2019-02-21T18:14:30.377Z,95954.06
2019-02-21T18:16:59.009Z,95943.81
2019-02-21T18:19:27.809Z,95952.86
2019-02-21T18:21:56.400Z,95952.86
2019-02-21T18:24:25.277Z,95947.12
2019-02-21T18:26:53.853Z,95939.86
2019-02-21T18:29:22.422Z,95948.97
2019-02-21T18:31:51.950Z,95952.48
2019-02-21T18:34:20.493Z,95951.25
2019-02-21T18:36:49.338Z,95967.28
2019-02-21T18:39:18.858Z,95967.28
2019-02-21T18:41:47.445Z,95976.67
2019-02-21T18:44:16.045Z,95973.72
2019-02-21T18:46:44.642Z,95967.38
2019-02-21T18:49:13.277Z,95967.38
2019-02-21T18:51:42.114Z,95973.05
2019-02-21T18:54:10.678Z,95983.66
2019-02-21T18:56:39.273Z,95994.83
2019-02-21T18:59:08.162Z,95994.83
2019-02-21T19:01:37.019Z,95998.92
2019-02-21T19:04:05.913Z,95994.61
2019-02-21T19:06:34.595Z,96001.75
2019-02-21T19:09:03.512Z,96001.75
2019-02-21T19:11:32.458Z,95991.60
2019-02-21T19:14:01.056Z,95994.31
2019-02-21T19:16:29.638Z,96000.08
2019-02-21T19:18:58.763Z,95995.81
2019-02-21T19:21:27.345Z,95993.91
2019-02-21T19:23:55.919Z,95993.91
2019-02-21T19:26:24.775Z,95994.53
2019-02-21T19:28:53.456Z,95994.13
2019-02-21T19:31:22.108Z,95994.13
2019-02-21T19:33:50.783Z,95994.45
2019-02-21T19:36:19.363Z,95996.84
2019-02-21T19:38:48.170Z,95996.59
2019-02-21T19:41:16.843Z,95995.27
2019-02-21T19:43:45.768Z,95992.58
2019-02-21T19:46:14.415Z,95992.00
2019-02-21T19:48:43.081Z,96006.17
2019-02-21T19:51:11.741Z,96006.17
2019-02-21T19:53:40.335Z,96012.80
2019-02-21T19:56:09.004Z,95957.02
2019-02-21T19:58:37.580Z,96017.84
2019-02-21T20:01:06.249Z,96018.86
2019-02-21T20:03:34.896Z,96018.86
2019-02-21T20:06:03.545Z,96018.17
2019-02-21T20:08:32.365Z,96022.55
2019-02-21T20:11:00.937Z,96022.55
2019-02-21T20:13:29.545Z,96032.95
2019-02-21T20:15:58.275Z,96035.55
2019-02-21T20:18:27.103Z,96037.17
2019-02-21T20:20:55.711Z,96029.44
2019-02-21T20:23:24.298Z,96029.44
2019-02-21T20:25:52.972Z,96030.14
2019-02-21T20:28:21.811Z,96044.98
2019-02-21T20:30:50.709Z,96042.78
2019-02-21T20:33:19.589Z,96038.83
2019-02-21T20:35:48.152Z,96038.83
2019-02-21T20:38:17.029Z,96048.94
2019-02-21T20:40:45.601Z,96048.94
2019-02-21T20:43:14.225Z,96057.57
2019-02-21T20:45:52.466Z,96057.57
2019-02-21T20:48:13.475Z,96065.07
2019-02-21T20:50:42.369Z,96068.47
2019-02-21T20:53:11.292Z,96068.47
2019-02-21T20:55:43.848Z,96067.80
2019-02-21T20:58:11.686Z,96063.95
2019-02-21T21:00:40.460Z,96055.20
2019-02-21T21:03:09.088Z,96068.08
2019-02-21T21:05:37.628Z,96068.08
2019-02-21T21:08:07.051Z,96063.55
2019-02-21T21:10:35.879Z,96069.17
2019-02-21T21:13:04.469Z,96079.34
2019-02-21T21:15:33.121Z,96079.34
2019-02-21T21:18:01.740Z,96076.73
2019-02-21T21:20:30.355Z,96067.59
2019-02-21T21:22:58.991Z,96074.67
2019-02-21T21:25:27.590Z,96074.67
2019-02-21T21:27:56.430Z,96077.03
2019-02-21T21:30:25.086Z,96076.37
2019-02-21T21:32:53.924Z,96080.59
2019-02-21T21:35:22.737Z,96081.59
2019-02-21T21:37:51.328Z,96083.64
2019-02-21T21:40:19.981Z,96083.64
2019-02-21T21:42:48.565Z,96087.45
2019-02-21T21:45:17.253Z,96098.58
2019-02-21T21:47:46.091Z,96102.30
2019-02-21T21:50:15.989Z,96103.52
2019-02-21T21:52:44.878Z,96105.48
2019-02-21T21:55:13.566Z,96099.52
2019-02-21T21:57:43.744Z,96104.73
2019-02-21T22:00:17.926Z,96098.02
2019-02-21T22:02:45.741Z,96086.92
2019-02-21T22:05:14.339Z,96086.92
2019-02-21T22:07:43.172Z,96094.97
2019-02-21T22:10:12.610Z,96088.13
2019-02-21T22:12:42.242Z,96092.38
2019-02-21T22:15:11.436Z,96092.38
2019-02-21T22:17:42.109Z,96087.48
2019-02-21T22:20:10.685Z,96088.52
2019-02-21T22:22:39.261Z,96085.97
2019-02-21T22:25:09.165Z,96095.70
2019-02-21T22:27:37.747Z,96094.72
2019-02-21T22:30:07.338Z,96097.45
2019-02-21T22:32:35.934Z,96094.84
2019-02-21T22:35:05.004Z,96094.84
2019-02-21T22:37:33.577Z,96094.35
2019-02-21T22:40:02.153Z,96086.95
2019-02-21T22:42:30.775Z,96094.31
2019-02-21T22:44:59.356Z,96094.31
2019-02-21T22:47:27.976Z,96088.25
2019-02-21T22:49:56.546Z,96088.25
2019-02-21T22:52:25.233Z,96090.65
2019-02-21T22:54:53.811Z,96090.65
2019-02-21T22:57:22.420Z,96101.48
2019-02-21T22:59:51.053Z,96113.13
2019-02-21T23:02:19.881Z,96104.34
2019-02-21T23:05:28.762Z,96100.23
2019-02-21T23:08:14.062Z,96105.08
2019-02-21T23:10:42.864Z,96103.21
2019-02-21T23:13:11.505Z,96102.72
2019-02-21T23:15:40.412Z,96108.74
2019-02-21T23:18:09.001Z,96101.56
2019-02-21T23:20:37.646Z,96107.20
2019-02-21T23:23:06.240Z,96107.20
2019-02-21T23:25:35.128Z,96117.11
2019-02-21T23:28:03.716Z,96115.55
2019-02-21T23:30:32.803Z,96122.96
2019-02-21T23:33:01.392Z,96122.96
2019-02-21T23:35:30.016Z,96123.46
2019-02-21T23:37:58.872Z,96123.30
2019-02-21T23:40:27.461Z,96123.73
2019-02-21T23:42:56.355Z,96120.09
2019-02-21T23:45:25.052Z,96121.63
2019-02-21T23:47:53.753Z,96115.56
2019-02-21T23:50:22.712Z,96124.54
2019-02-21T23:52:51.526Z,96130.36
2019-02-21T23:55:20.118Z,96135.39
2019-02-21T23:57:48.684Z,96137.45
